sensor_id;sensor_type;location;lat;lon;timestamp;pressure;altitude;pressure_sealevel;temperature;humidity
15750;BME280;7976;52.526;13.326;2023-04-24T00:01:07;99857.06;;;14.09;77.67
15750;BME280;7976;52.526;13.326;2023-04-24T00:03:34;99856.22;;;14.09;77.82
15750;BME280;7976;52.526;13.326;2023-04-24T00:06:01;99845.81;;;14.07;77.88
15750;BME280;7976;52.526;13.326;2023-04-24T00:08:29;99844.88;;;14.08;77.96
15750;BME280;7976;52.526;13.326;2023-04-24T00:10:57;99839.78;;;14.05;77.91
15750;BME280;7976;52.526;13.326;2023-04-24T00:13:24;99843.50;;;14.03;78.47
15750;BME280;7976;52.526;13.326;2023-04-24T00:15:51;99840.09;;;14.01;78.19
15750;BME280;7976;52.526;13.326;2023-04-24T00:18:18;99832.53;;;13.96;78.58
15750;BME280;7976;52.526;13.326;2023-04-24T00:20:45;99831.56;;;13.97;78.81
15750;BME280;7976;52.526;13.326;2023-04-24T00:23:12;99831.47;;;13.99;78.87
15750;BME280;7976;52.526;13.326;2023-04-24T00:25:39;99828.00;;;13.98;78.79
15750;BME280;7976;52.526;13.326;2023-04-24T00:28:07;99809.59;;;13.98;78.92
15750;BME280;7976;52.526;13.326;2023-04-24T00:30:35;99817.50;;;13.98;79.18
15750;BME280;7976;52.526;13.326;2023-04-24T00:33:02;99814.13;;;13.96;79.10
15750;BME280;7976;52.526;13.326;2023-04-24T00:35:29;99809.97;;;13.92;79.41
15750;BME280;7976;52.526;13.326;2023-04-24T00:37:56;99805.78;;;13.90;79.63
15750;BME280;7976;52.526;13.326;2023-04-24T00:40:23;99801.44;;;13.88;79.67
15750;BME280;7976;52.526;13.326;2023-04-24T00:42:50;99796.28;;;13.87;80.03
15750;BME280;7976;52.526;13.326;2023-04-24T00:45:18;99792.91;;;13.85;79.83
15750;BME280;7976;52.526;13.326;2023-04-24T00:47:48;99794.06;;;13.81;80.04
15750;BME280;7976;52.526;13.326;2023-04-24T00:50:16;99789.19;;;13.75;80.31
15750;BME280;7976;52.526;13.326;2023-04-24T00:52:42;99771.75;;;13.74;80.61
15750;BME280;7976;52.526;13.326;2023-04-24T00:55:09;99778.69;;;13.75;80.50
15750;BME280;7976;52.526;13.326;2023-04-24T00:57:37;99782.47;;;13.71;80.70
15750;BME280;7976;52.526;13.326;2023-04-24T01:00:06;99770.47;;;13.67;80.93
15750;BME280;7976;52.526;13.326;2023-04-24T01:02:39;99768.69;;;13.67;81.33
15750;BME280;7976;52.526;13.326;2023-04-24T01:05:09;99766.97;;;13.66;81.12
15750;BME280;7976;52.526;13.326;2023-04-24T01:07:38;99783.81;;;13.64;81.12
15750;BME280;7976;52.526;13.326;2023-04-24T01:10:08;99781.38;;;13.61;81.49
15750;BME280;7976;52.526;13.326;2023-04-24T01:12:37;99786.75;;;13.59;81.61
15750;BME280;7976;52.526;13.326;2023-04-24T01:15:06;99789.28;;;13.61;81.73
15750;BME280;7976;52.526;13.326;2023-04-24T01:17:34;99787.41;;;13.63;81.87
15750;BME280;7976;52.526;13.326;2023-04-24T01:20:04;99785.47;;;13.65;81.64
15750;BME280;7976;52.526;13.326;2023-04-24T01:22:33;99789.06;;;13.64;81.81
15750;BME280;7976;52.526;13.326;2023-04-24T01:25:01;99779.50;;;13.63;81.87
15750;BME280;7976;52.526;13.326;2023-04-24T01:27:30;99779.50;;;13.63;82.00
15750;BME280;7976;52.526;13.326;2023-04-24T01:29:57;99772.66;;;13.60;81.96
15750;BME280;7976;52.526;13.326;2023-04-24T01:32:24;99780.63;;;13.59;82.16
15750;BME280;7976;52.526;13.326;2023-04-24T01:34:51;99778.97;;;13.58;82.29
15750;BME280;7976;52.526;13.326;2023-04-24T01:37:18;99778.88;;;13.59;82.30
15750;BME280;7976;52.526;13.326;2023-04-24T01:39:46;99775.19;;;13.62;82.22
15750;BME280;7976;52.526;13.326;2023-04-24T01:42:14;99777.59;;;13.65;82.14
15750;BME280;7976;52.526;13.326;2023-04-24T01:44:41;99769.72;;;13.65;82.19
15750;BME280;7976;52.526;13.326;2023-04-24T01:47:08;99766.16;;;13.66;82.29
15750;BME280;7976;52.526;13.326;2023-04-24T01:49:37;99764.44;;;13.65;82.62
15750;BME280;7976;52.526;13.326;2023-04-24T01:52:05;99755.84;;;13.63;82.95
15750;BME280;7976;52.526;13.326;2023-04-24T01:54:32;99745.34;;;13.63;82.88
15750;BME280;7976;52.526;13.326;2023-04-24T01:57:00;99742.69;;;13.63;83.36
15750;BME280;7976;52.526;13.326;2023-04-24T01:59:28;99748.88;;;13.62;83.36
15750;BME280;7976;52.526;13.326;2023-04-24T02:01:56;99750.75;;;13.60;83.43
15750;BME280;7976;52.526;13.326;2023-04-24T02:04:23;99746.47;;;13.59;83.52
15750;BME280;7976;52.526;13.326;2023-04-24T02:06:50;99746.47;;;13.59;83.22
15750;BME280;7976;52.526;13.326;2023-04-24T02:09:17;99750.75;;;13.60;83.89
15750;BME280;7976;52.526;13.326;2023-04-24T02:11:43;99745.50;;;13.60;83.76
15750;BME280;7976;52.526;13.326;2023-04-24T02:14:12;99738.56;;;13.59;83.63
15750;BME280;7976;52.526;13.326;2023-04-24T02:16:39;99741.22;;;13.59;83.82
15750;BME280;7976;52.526;13.326;2023-04-24T02:19:06;99741.00;;;13.62;83.76
15750;BME280;7976;52.526;13.326;2023-04-24T02:21:34;99731.22;;;13.64;83.80
15750;BME280;7976;52.526;13.326;2023-04-24T02:24:01;99724.09;;;13.66;83.87
15750;BME280;7976;52.526;13.326;2023-04-24T02:26:28;99730.09;;;13.68;83.88
15750;BME280;7976;52.526;13.326;2023-04-24T02:28:56;99728.94;;;13.72;83.56
15750;BME280;7976;52.526;13.326;2023-04-24T02:31:25;99738.41;;;13.74;83.51
15750;BME280;7976;52.526;13.326;2023-04-24T02:33:52;99741.16;;;13.73;83.59
15750;BME280;7976;52.526;13.326;2023-04-24T02:36:18;99735.16;;;13.71;83.17
15750;BME280;7976;52.526;13.326;2023-04-24T02:38:47;99735.25;;;13.69;83.56
15750;BME280;7976;52.526;13.326;2023-04-24T02:41:14;99728.38;;;13.67;83.29
15750;BME280;7976;52.526;13.326;2023-04-24T02:43:42;99729.34;;;13.66;83.81
15750;BME280;7976;52.526;13.326;2023-04-24T02:46:09;99739.75;;;13.67;83.46
15750;BME280;7976;52.526;13.326;2023-04-24T02:48:37;99730.81;;;13.70;83.57
15750;BME280;7976;52.526;13.326;2023-04-24T02:51:05;99729.13;;;13.69;83.47
15750;BME280;7976;52.526;13.326;2023-04-24T02:53:33;99733.00;;;13.63;83.68
15750;BME280;7976;52.526;13.326;2023-04-24T02:56:00;99730.47;;;13.62;83.88
15750;BME280;7976;52.526;13.326;2023-04-24T02:58:27;99724.47;;;13.60;83.95
15750;BME280;7976;52.526;13.326;2023-04-24T03:00:54;99719.31;;;13.58;83.93
15750;BME280;7976;52.526;13.326;2023-04-24T03:03:22;99726.19;;;13.61;84.07
15750;BME280;7976;52.526;13.326;2023-04-24T03:05:50;99727.84;;;13.62;83.74
15750;BME280;7976;52.526;13.326;2023-04-24T03:08:17;99728.50;;;13.65;83.77
15750;BME280;7976;52.526;13.326;2023-04-24T03:10:44;99730.91;;;13.68;83.85
15750;BME280;7976;52.526;13.326;2023-04-24T03:13:11;99732.63;;;13.69;83.62
15750;BME280;7976;52.526;13.326;2023-04-24T03:15:38;99743.03;;;13.71;83.67
15750;BME280;7976;52.526;13.326;2023-04-24T03:18:05;99743.69;;;13.74;83.90
15750;BME280;7976;52.526;13.326;2023-04-24T03:20:32;99748.63;;;13.79;83.50
15750;BME280;7976;52.526;13.326;2023-04-24T03:23:00;99736.22;;;13.81;83.37
15750;BME280;7976;52.526;13.326;2023-04-24T03:25:27;99746.53;;;13.84;83.48
15750;BME280;7976;52.526;13.326;2023-04-24T03:27:54;99744.84;;;13.83;83.27
15750;BME280;7976;52.526;13.326;2023-04-24T03:30:41;99742.94;;;13.85;83.47
15750;BME280;7976;52.526;13.326;2023-04-24T03:33:09;99733.16;;;13.87;83.65
15750;BME280;7976;52.526;13.326;2023-04-24T03:35:41;99738.31;;;13.88;83.16
15750;BME280;7976;52.526;13.326;2023-04-24T03:38:12;99724.53;;;13.85;83.30
15750;BME280;7976;52.526;13.326;2023-04-24T03:41:18;99734.00;;;13.88;83.48
15750;BME280;7976;52.526;13.326;2023-04-24T03:43:49;99740.13;;;13.88;83.41
15750;BME280;7976;52.526;13.326;2023-04-24T03:46:16;99743.69;;;13.87;83.54
15750;BME280;7976;52.526;13.326;2023-04-24T03:48:49;99740.03;;;13.90;83.45
15750;BME280;7976;52.526;13.326;2023-04-24T03:51:18;99737.94;;;13.95;83.33
15750;BME280;7976;52.526;13.326;2023-04-24T03:53:50;99736.97;;;13.96;83.15
15750;BME280;7976;52.526;13.326;2023-04-24T03:56:19;99736.00;;;13.97;82.97
15750;BME280;7976;52.526;13.326;2023-04-24T03:58:46;99738.63;;;13.97;83.11
15750;BME280;7976;52.526;13.326;2023-04-24T04:01:13;99736.75;;;13.99;83.09
15750;BME280;7976;52.526;13.326;2023-04-24T04:03:59;99730.34;;;14.03;83.03
15750;BME280;7976;52.526;13.326;2023-04-24T04:06:27;99735.50;;;14.04;82.99
15750;BME280;7976;52.526;13.326;2023-04-24T04:08:57;99719.72;;;14.04;82.72
15750;BME280;7976;52.526;13.326;2023-04-24T04:11:25;99726.88;;;14.02;82.66
15750;BME280;7976;52.526;13.326;2023-04-24T04:13:52;99726.13;;;14.00;82.80
15750;BME280;7976;52.526;13.326;2023-04-24T04:16:21;99718.25;;;14.00;82.82
15750;BME280;7976;52.526;13.326;2023-04-24T04:18:50;99722.56;;;14.01;82.49
15750;BME280;7976;52.526;13.326;2023-04-24T04:21:17;99722.78;;;13.98;82.54
15750;BME280;7976;52.526;13.326;2023-04-24T04:23:45;99722.69;;;14.00;82.76
15750;BME280;7976;52.526;13.326;2023-04-24T04:26:18;99721.94;;;13.98;82.80
15750;BME280;7976;52.526;13.326;2023-04-24T04:28:57;99726.25;;;13.99;82.63
15750;BME280;7976;52.526;13.326;2023-04-24T04:31:24;99727.31;;;13.96;82.65
15750;BME280;7976;52.526;13.326;2023-04-24T04:33:51;99731.06;;;13.92;82.65
15750;BME280;7976;52.526;13.326;2023-04-24T04:36:19;99722.44;;;13.90;82.74
15750;BME280;7976;52.526;13.326;2023-04-24T04:38:51;99719.91;;;13.88;82.85
15750;BME280;7976;52.526;13.326;2023-04-24T04:41:38;99726.03;;;13.89;82.89
15750;BME280;7976;52.526;13.326;2023-04-24T04:44:07;99728.44;;;13.92;83.04
15750;BME280;7976;52.526;13.326;2023-04-24T04:46:34;99728.22;;;13.95;82.73
15750;BME280;7976;52.526;13.326;2023-04-24T04:49:17;99741.19;;;13.98;82.76
15750;BME280;7976;52.526;13.326;2023-04-24T04:51:44;99737.59;;;13.99;82.72
15750;BME280;7976;52.526;13.326;2023-04-24T04:54:12;99743.63;;;14.01;82.47
15750;BME280;7976;52.526;13.326;2023-04-24T04:56:41;99749.53;;;14.05;82.85
15750;BME280;7976;52.526;13.326;2023-04-24T04:59:07;99753.81;;;14.06;82.64
15750;BME280;7976;52.526;13.326;2023-04-24T05:01:36;99752.97;;;14.05;82.36
15750;BME280;7976;52.526;13.326;2023-04-24T05:04:05;99753.19;;;14.02;82.61
15750;BME280;7976;52.526;13.326;2023-04-24T05:06:32;99753.81;;;14.06;82.63
15750;BME280;7976;52.526;13.326;2023-04-24T05:08:59;99757.41;;;14.05;82.68
15750;BME280;7976;52.526;13.326;2023-04-24T05:11:40;99763.50;;;14.05;82.58
15750;BME280;7976;52.526;13.326;2023-04-24T05:14:07;99752.97;;;14.05;82.90
15750;BME280;7976;52.526;13.326;2023-04-24T05:16:36;99754.88;;;14.03;82.76
15750;BME280;7976;52.526;13.326;2023-04-24T05:19:04;99759.09;;;14.06;82.73
15750;BME280;7976;52.526;13.326;2023-04-24T05:21:36;99751.28;;;14.04;82.62
15750;BME280;7976;52.526;13.326;2023-04-24T05:24:03;99756.34;;;14.07;82.79
15750;BME280;7976;52.526;13.326;2023-04-24T05:26:45;99763.09;;;14.11;82.70
15750;BME280;7976;52.526;13.326;2023-04-24T05:29:17;99760.16;;;14.16;82.55
15750;BME280;7976;52.526;13.326;2023-04-24T05:31:44;99763.31;;;14.21;82.35
15750;BME280;7976;52.526;13.326;2023-04-24T05:34:11;99767.53;;;14.23;82.24
15750;BME280;7976;52.526;13.326;2023-04-24T05:36:42;99769.22;;;14.24;82.30
15750;BME280;7976;52.526;13.326;2023-04-24T05:39:09;99766.69;;;14.23;82.09
15750;BME280;7976;52.526;13.326;2023-04-24T05:41:36;99767.53;;;14.23;82.32
15750;BME280;7976;52.526;13.326;2023-04-24T05:44:04;99760.78;;;14.19;81.99
15750;BME280;7976;52.526;13.326;2023-04-24T05:46:31;99763.75;;;14.15;81.86
15750;BME280;7976;52.526;13.326;2023-04-24T05:48:58;99763.91;;;14.12;82.08
15750;BME280;7976;52.526;13.326;2023-04-24T05:51:25;99767.50;;;14.11;82.05
15750;BME280;7976;52.526;13.326;2023-04-24T05:53:52;99773.84;;;14.08;81.92
15750;BME280;7976;52.526;13.326;2023-04-24T05:56:19;99777.50;;;14.06;81.61
15750;BME280;7976;52.526;13.326;2023-04-24T05:58:46;99778.63;;;14.02;82.10
15750;BME280;7976;52.526;13.326;2023-04-24T06:01:15;99782.22;;;14.01;82.11
15750;BME280;7976;52.526;13.326;2023-04-24T06:03:45;99779.59;;;14.01;81.94
15750;BME280;7976;52.526;13.326;2023-04-24T06:06:11;99780.25;;;14.04;82.18
15750;BME280;7976;52.526;13.326;2023-04-24T06:08:38;99782.66;;;14.07;82.01
15750;BME280;7976;52.526;13.326;2023-04-24T06:11:05;99785.81;;;14.12;81.63
15750;BME280;7976;52.526;13.326;2023-04-24T06:13:33;99792.56;;;14.16;81.66
15750;BME280;7976;52.526;13.326;2023-04-24T06:16:21;99787.09;;;14.19;81.38
15750;BME280;7976;52.526;13.326;2023-04-24T06:18:55;99784.56;;;14.18;81.32
15750;BME280;7976;52.526;13.326;2023-04-24T06:21:21;99786.25;;;14.19;80.96
15750;BME280;7976;52.526;13.326;2023-04-24T06:23:49;99787.75;;;14.23;80.75
15750;BME280;7976;52.526;13.326;2023-04-24T06:26:16;99796.09;;;14.29;80.59
15750;BME280;7976;52.526;13.326;2023-04-24T06:28:43;99793.47;;;14.42;80.41
15750;BME280;7976;52.526;13.326;2023-04-24T06:31:10;99795.16;;;14.55;80.26
15750;BME280;7976;52.526;13.326;2023-04-24T06:33:39;99792.41;;;14.69;79.95
15750;BME280;7976;52.526;13.326;2023-04-24T06:36:06;99790.72;;;14.81;79.06
15750;BME280;7976;52.526;13.326;2023-04-24T06:38:33;99789.88;;;14.93;78.77
15750;BME280;7976;52.526;13.326;2023-04-24T06:41:00;99791.75;;;15.03;78.37
15750;BME280;7976;52.526;13.326;2023-04-24T06:43:28;99797.94;;;15.15;78.05
15750;BME280;7976;52.526;13.326;2023-04-24T06:45:55;99798.63;;;15.30;77.48
15750;BME280;7976;52.526;13.326;2023-04-24T06:48:22;99808.53;;;15.39;77.24
15750;BME280;7976;52.526;13.326;2023-04-24T06:50:51;99801.88;;;15.46;76.58
15750;BME280;7976;52.526;13.326;2023-04-24T06:53:18;99790.16;;;15.50;76.05
15750;BME280;7976;52.526;13.326;2023-04-24T06:55:45;99783.25;;;15.60;75.59
15750;BME280;7976;52.526;13.326;2023-04-24T06:58:12;99769.19;;;15.72;75.00
15750;BME280;7976;52.526;13.326;2023-04-24T07:00:40;99784.22;;;15.82;74.37
15750;BME280;7976;52.526;13.326;2023-04-24T07:03:07;99793.69;;;15.85;74.35
15750;BME280;7976;52.526;13.326;2023-04-24T07:05:34;99788.91;;;15.90;74.09
15750;BME280;7976;52.526;13.326;2023-04-24T07:08:04;99779.09;;;15.92;73.23
15750;BME280;7976;52.526;13.326;2023-04-24T07:10:32;99777.50;;;15.89;73.08
15750;BME280;7976;52.526;13.326;2023-04-24T07:13:01;99787.69;;;15.83;72.76
15750;BME280;7976;52.526;13.326;2023-04-24T07:15:27;99783.25;;;15.83;72.27
15750;BME280;7976;52.526;13.326;2023-04-24T07:17:54;99781.63;;;15.93;71.62
15750;BME280;7976;52.526;13.326;2023-04-24T07:20:22;99782.25;;;16.08;71.11
15750;BME280;7976;52.526;13.326;2023-04-24T07:22:48;99783.00;;;16.21;70.70
15750;BME280;7976;52.526;13.326;2023-04-24T07:25:18;99781.13;;;16.34;69.64
15750;BME280;7976;52.526;13.326;2023-04-24T07:27:45;99790.50;;;16.38;68.61
15750;BME280;7976;52.526;13.326;2023-04-24T07:30:12;99789.31;;;16.42;68.12
15750;BME280;7976;52.526;13.326;2023-04-24T07:32:39;99788.97;;;16.47;67.79
15750;BME280;7976;52.526;13.326;2023-04-24T07:35:07;99789.97;;;16.46;67.32
15750;BME280;7976;52.526;13.326;2023-04-24T07:37:35;99792.34;;;16.49;66.83
15750;BME280;7976;52.526;13.326;2023-04-24T07:40:02;99787.69;;;16.52;66.68
15750;BME280;7976;52.526;13.326;2023-04-24T07:42:31;99788.41;;;16.54;66.42
15750;BME280;7976;52.526;13.326;2023-04-24T07:45:00;99784.06;;;16.53;66.01
15750;BME280;7976;52.526;13.326;2023-04-24T07:47:27;99784.56;;;16.58;65.97
15750;BME280;7976;52.526;13.326;2023-04-24T07:49:53;99774.47;;;16.63;65.77
15750;BME280;7976;52.526;13.326;2023-04-24T07:52:20;99780.97;;;16.70;65.88
15750;BME280;7976;52.526;13.326;2023-04-24T07:54:47;99783.59;;;16.81;65.33
15750;BME280;7976;52.526;13.326;2023-04-24T07:57:15;99782.41;;;16.96;65.17
15750;BME280;7976;52.526;13.326;2023-04-24T07:59:43;99787.56;;;17.09;64.62
15750;BME280;7976;52.526;13.326;2023-04-24T08:02:10;99792.16;;;17.18;64.02
15750;BME280;7976;52.526;13.326;2023-04-24T08:04:37;99790.66;;;17.25;63.97
15750;BME280;7976;52.526;13.326;2023-04-24T08:07:04;99781.75;;;17.37;63.40
15750;BME280;7976;52.526;13.326;2023-04-24T08:09:30;99785.00;;;17.51;63.32
15750;BME280;7976;52.526;13.326;2023-04-24T08:11:57;99783.75;;;17.67;62.29
15750;BME280;7976;52.526;13.326;2023-04-24T08:14:24;99779.28;;;17.67;61.42
15750;BME280;7976;52.526;13.326;2023-04-24T08:16:54;99787.38;;;17.66;61.23
15750;BME280;7976;52.526;13.326;2023-04-24T08:19:22;99783.66;;;17.57;61.30
15750;BME280;7976;52.526;13.326;2023-04-24T08:21:48;99802.31;;;17.56;61.38
15750;BME280;7976;52.526;13.326;2023-04-24T08:24:15;99785.91;;;17.62;61.46
15750;BME280;7976;52.526;13.326;2023-04-24T08:26:42;99792.41;;;17.69;61.54
15750;BME280;7976;52.526;13.326;2023-04-24T08:29:09;99780.28;;;17.66;61.00
15750;BME280;7976;52.526;13.326;2023-04-24T08:31:36;99782.31;;;17.63;61.18
15750;BME280;7976;52.526;13.326;2023-04-24T08:34:04;99783.28;;;17.62;60.99
15750;BME280;7976;52.526;13.326;2023-04-24T08:36:31;99770.28;;;17.59;61.22
15750;BME280;7976;52.526;13.326;2023-04-24T08:38:59;99781.56;;;17.72;60.36
15750;BME280;7976;52.526;13.326;2023-04-24T08:41:27;99775.06;;;17.76;60.08
15750;BME280;7976;52.526;13.326;2023-04-24T08:43:55;99785.03;;;17.83;60.09
15750;BME280;7976;52.526;13.326;2023-04-24T08:46:24;99784.50;;;17.89;59.64
15750;BME280;7976;52.526;13.326;2023-04-24T08:48:52;99784.84;;;17.96;59.57
15750;BME280;7976;52.526;13.326;2023-04-24T08:51:21;99783.38;;;18.03;59.29
15750;BME280;7976;52.526;13.326;2023-04-24T08:53:48;99776.06;;;18.16;58.61
15750;BME280;7976;52.526;13.326;2023-04-24T08:56:16;99777.44;;;18.31;58.24
15750;BME280;7976;52.526;13.326;2023-04-24T08:58:43;99783.72;;;18.30;57.79
15750;BME280;7976;52.526;13.326;2023-04-24T09:01:11;99803.28;;;18.18;57.99
15750;BME280;7976;52.526;13.326;2023-04-24T09:03:39;99789.25;;;18.06;57.72
15750;BME280;7976;52.526;13.326;2023-04-24T09:06:09;99789.28;;;17.95;58.06
15750;BME280;7976;52.526;13.326;2023-04-24T09:08:41;99794.03;;;17.81;57.92
15750;BME280;7976;52.526;13.326;2023-04-24T09:11:09;99782.75;;;17.79;58.64
15750;BME280;7976;52.526;13.326;2023-04-24T09:13:37;99790.66;;;17.90;58.63
15750;BME280;7976;52.526;13.326;2023-04-24T09:16:04;99797.38;;;17.94;58.19
15750;BME280;7976;52.526;13.326;2023-04-24T09:18:31;99788.47;;;17.95;58.29
15750;BME280;7976;52.526;13.326;2023-04-24T09:21:01;99783.19;;;17.95;58.20
15750;BME280;7976;52.526;13.326;2023-04-24T09:23:29;99788.47;;;17.95;58.58
15750;BME280;7976;52.526;13.326;2023-04-24T09:26:00;99790.72;;;17.99;58.60
15750;BME280;7976;52.526;13.326;2023-04-24T09:28:34;99785.63;;;18.07;58.66
15750;BME280;7976;52.526;13.326;2023-04-24T09:31:04;99790.88;;;18.18;58.68
15750;BME280;7976;52.526;13.326;2023-04-24T09:33:32;99794.13;;;18.22;58.51
15750;BME280;7976;52.526;13.326;2023-04-24T09:35:59;99786.63;;;18.27;58.95
15750;BME280;7976;52.526;13.326;2023-04-24T09:38:34;99792.63;;;18.29;59.03
15750;BME280;7976;52.526;13.326;2023-04-24T09:41:06;99796.78;;;18.22;58.98
15750;BME280;7976;52.526;13.326;2023-04-24T09:43:34;99796.09;;;18.09;59.76
15750;BME280;7976;52.526;13.326;2023-04-24T09:46:06;99789.13;;;18.08;59.95
15750;BME280;7976;52.526;13.326;2023-04-24T09:48:36;99798.72;;;18.09;59.77
15750;BME280;7976;52.526;13.326;2023-04-24T09:51:05;99792.22;;;18.13;59.85
15750;BME280;7976;52.526;13.326;2023-04-24T09:53:36;99791.31;;;18.03;59.76
15750;BME280;7976;52.526;13.326;2023-04-24T09:56:09;99798.47;;;17.91;59.95
15750;BME280;7976;52.526;13.326;2023-04-24T09:58:38;99792.84;;;17.85;60.23
15750;BME280;7976;52.526;13.326;2023-04-24T10:01:05;99796.44;;;17.84;60.45
15750;BME280;7976;52.526;13.326;2023-04-24T10:03:33;99790.31;;;17.83;60.11
15750;BME280;7976;52.526;13.326;2023-04-24T10:06:01;99784.19;;;17.83;60.33
15750;BME280;7976;52.526;13.326;2023-04-24T10:08:35;99782.00;;;17.88;60.33
15750;BME280;7976;52.526;13.326;2023-04-24T10:11:02;99785.03;;;18.04;60.18
15750;BME280;7976;52.526;13.326;2023-04-24T10:13:32;99772.41;;;18.28;60.06
15750;BME280;7976;52.526;13.326;2023-04-24T10:16:01;99781.06;;;18.50;59.27
15750;BME280;7976;52.526;13.326;2023-04-24T10:18:30;99783.38;;;18.64;59.02
15750;BME280;7976;52.526;13.326;2023-04-24T10:21:00;99785.31;;;18.62;58.86
15750;BME280;7976;52.526;13.326;2023-04-24T10:23:29;99779.13;;;18.52;59.42
15750;BME280;7976;52.526;13.326;2023-04-24T10:25:57;99781.25;;;18.38;59.31
15750;BME280;7976;52.526;13.326;2023-04-24T10:28:26;99780.88;;;18.22;59.84
15750;BME280;7976;52.526;13.326;2023-04-24T10:30:56;99785.75;;;18.06;60.04
15750;BME280;7976;52.526;13.326;2023-04-24T10:33:24;99790.47;;;18.02;60.45
15750;BME280;7976;52.526;13.326;2023-04-24T10:35:53;99787.22;;;17.99;60.31
15750;BME280;7976;52.526;13.326;2023-04-24T10:38:24;99780.06;;;17.90;60.09
15750;BME280;7976;52.526;13.326;2023-04-24T10:41:02;99779.00;;;17.81;60.71
15750;BME280;7976;52.526;13.326;2023-04-24T10:43:34;99790.72;;;17.68;61.08
15750;BME280;7976;52.526;13.326;2023-04-24T10:46:03;99784.75;;;17.55;60.99
15750;BME280;7976;52.526;13.326;2023-04-24T10:48:32;99786.69;;;17.52;61.16
15750;BME280;7976;52.526;13.326;2023-04-24T10:50:59;99777.50;;;17.57;61.23
15750;BME280;7976;52.526;13.326;2023-04-24T10:53:29;99781.72;;;17.59;61.21
15750;BME280;7976;52.526;13.326;2023-04-24T10:56:03;99777.41;;;17.58;61.28
15750;BME280;7976;52.526;13.326;2023-04-24T10:58:40;99783.63;;;17.68;61.29
15750;BME280;7976;52.526;13.326;2023-04-24T11:01:24;99780.53;;;17.95;61.07
15750;BME280;7976;52.526;13.326;2023-04-24T11:03:55;99774.16;;;18.38;60.33
15750;BME280;7976;52.526;13.326;2023-04-24T11:06:29;99780.97;;;18.82;59.47
15750;BME280;7976;52.526;13.326;2023-04-24T11:09:04;99775.16;;;18.98;58.95
15750;BME280;7976;52.526;13.326;2023-04-24T11:11:32;99770.72;;;19.08;58.19
15750;BME280;7976;52.526;13.326;2023-04-24T11:14:05;99778.75;;;19.17;57.92
15750;BME280;7976;52.526;13.326;2023-04-24T11:16:37;99768.28;;;19.25;57.56
15750;BME280;7976;52.526;13.326;2023-04-24T11:19:07;99772.88;;;19.23;57.34
15750;BME280;7976;52.526;13.326;2023-04-24T11:21:43;99758.47;;;19.26;57.26
15750;BME280;7976;52.526;13.326;2023-04-24T11:24:28;99758.22;;;19.29;56.56
15750;BME280;7976;52.526;13.326;2023-04-24T11:26:58;99772.16;;;19.21;56.41
15750;BME280;7976;52.526;13.326;2023-04-24T11:29:46;99768.84;;;18.89;56.83
15750;BME280;7976;52.526;13.326;2023-04-24T11:32:26;99773.25;;;18.49;58.04
15750;BME280;7976;52.526;13.326;2023-04-24T11:34:55;99790.59;;;18.01;60.37
15750;BME280;7976;52.526;13.326;2023-04-24T11:37:24;99792.63;;;17.23;65.36
15750;BME280;7976;52.526;13.326;2023-04-24T11:39:54;99786.75;;;16.64;69.16
15750;BME280;7976;52.526;13.326;2023-04-24T11:42:22;99775.81;;;16.23;72.38
15750;BME280;7976;52.526;13.326;2023-04-24T11:44:51;99793.47;;;15.88;74.97
15750;BME280;7976;52.526;13.326;2023-04-24T11:47:19;99789.78;;;15.67;77.03
15750;BME280;7976;52.526;13.326;2023-04-24T11:49:46;99789.28;;;15.62;78.56
15750;BME280;7976;52.526;13.326;2023-04-24T11:52:15;99784.03;;;15.73;79.77
15750;BME280;7976;52.526;13.326;2023-04-24T11:54:48;99784.00;;;15.96;79.88
15750;BME280;7976;52.526;13.326;2023-04-24T11:57:15;99778.69;;;16.20;80.52
15750;BME280;7976;52.526;13.326;2023-04-24T11:59:42;99772.38;;;16.45;80.32
15750;BME280;7976;52.526;13.326;2023-04-24T12:02:21;99769.34;;;16.73;80.67
15750;BME280;7976;52.526;13.326;2023-04-24T12:04:48;99782.03;;;16.90;80.08
15750;BME280;7976;52.526;13.326;2023-04-24T12:07:15;99771.97;;;17.06;78.51
15750;BME280;7976;52.526;13.326;2023-04-24T12:09:43;99763.88;;;17.18;77.62
15750;BME280;7976;52.526;13.326;2023-04-24T12:12:12;99764.84;;;17.17;77.82
15750;BME280;7976;52.526;13.326;2023-04-24T12:14:44;99759.31;;;17.20;78.05
15750;BME280;7976;52.526;13.326;2023-04-24T12:17:11;99756.75;;;17.30;77.95
15750;BME280;7976;52.526;13.326;2023-04-24T12:19:46;99745.81;;;17.34;77.08
15750;BME280;7976;52.526;13.326;2023-04-24T12:22:14;99756.72;;;17.52;75.98
15750;BME280;7976;52.526;13.326;2023-04-24T12:24:58;99750.38;;;17.75;73.96
15750;BME280;7976;52.526;13.326;2023-04-24T12:27:26;99747.56;;;17.88;73.49
15750;BME280;7976;52.526;13.326;2023-04-24T12:29:56;99740.47;;;18.09;73.72
15750;BME280;7976;52.526;13.326;2023-04-24T12:32:23;99739.38;;;18.32;72.61
15750;BME280;7976;52.526;13.326;2023-04-24T12:34:53;99730.19;;;18.56;69.91
15750;BME280;7976;52.526;13.326;2023-04-24T12:37:20;99732.66;;;18.79;68.93
15750;BME280;7976;52.526;13.326;2023-04-24T12:40:02;99752.13;;;18.98;67.78
15750;BME280;7976;52.526;13.326;2023-04-24T12:42:30;99737.22;;;18.97;65.28
15750;BME280;7976;52.526;13.326;2023-04-24T12:44:59;99744.09;;;18.79;62.23
15750;BME280;7976;52.526;13.326;2023-04-24T12:47:27;99740.53;;;18.59;61.62
15750;BME280;7976;52.526;13.326;2023-04-24T12:49:56;99747.88;;;18.46;60.15
15750;BME280;7976;52.526;13.326;2023-04-24T12:52:23;99750.44;;;18.37;59.46
15750;BME280;7976;52.526;13.326;2023-04-24T12:54:54;99753.84;;;18.28;58.99
15750;BME280;7976;52.526;13.326;2023-04-24T12:57:21;99755.91;;;18.24;59.02
15750;BME280;7976;52.526;13.326;2023-04-24T12:59:48;99747.66;;;18.18;59.04
15750;BME280;7976;52.526;13.326;2023-04-24T13:02:16;99746.22;;;18.14;58.87
15750;BME280;7976;52.526;13.326;2023-04-24T13:04:44;99740.56;;;18.18;58.87
15750;BME280;7976;52.526;13.326;2023-04-24T13:07:13;99740.03;;;18.24;58.58
15750;BME280;7976;52.526;13.326;2023-04-24T13:09:41;99747.00;;;18.25;58.43